sensor_id;sensor_type;location;lat;lon;timestamp;temperature;humidity
52656;SHT85;35474;51.032;6.998;2023-05-31T00:00:35;15.00;73.30
52656;SHT85;35474;51.032;6.998;2023-05-31T00:03:01;15.03;73.32
52656;SHT85;35474;51.032;6.998;2023-05-31T00:05:29;14.93;73.67
52656;SHT85;35474;51.032;6.998;2023-05-31T00:07:55;15.03;73.48
52656;SHT85;35474;51.032;6.998;2023-05-31T00:10:22;15.07;73.26
52656;SHT85;35474;51.032;6.998;2023-05-31T00:12:48;14.95;73.40
52656;SHT85;35474;51.032;6.998;2023-05-31T00:15:15;14.87;73.84
52656;SHT85;35474;51.032;6.998;2023-05-31T00:17:42;14.83;73.89
52656;SHT85;35474;51.032;6.998;2023-05-31T00:20:11;14.73;74.20
52656;SHT85;35474;51.032;6.998;2023-05-31T00:22:38;14.69;74.40
52656;SHT85;35474;51.032;6.998;2023-05-31T00:25:05;14.76;74.16
52656;SHT85;35474;51.032;6.998;2023-05-31T00:27:32;14.63;74.52
52656;SHT85;35474;51.032;6.998;2023-05-31T00:29:58;14.60;74.52
52656;SHT85;35474;51.032;6.998;2023-05-31T00:32:34;14.73;74.44
52656;SHT85;35474;51.032;6.998;2023-05-31T00:35:01;14.76;74.42
52656;SHT85;35474;51.032;6.998;2023-05-31T00:37:27;14.73;74.52
52656;SHT85;35474;51.032;6.998;2023-05-31T00:39:54;14.74;74.34
52656;SHT85;35474;51.032;6.998;2023-05-31T00:42:20;14.77;74.55
52656;SHT85;35474;51.032;6.998;2023-05-31T00:44:47;14.83;74.23
52656;SHT85;35474;51.032;6.998;2023-05-31T00:47:13;14.83;74.30
52656;SHT85;35474;51.032;6.998;2023-05-31T00:49:40;14.77;74.58
52656;SHT85;35474;51.032;6.998;2023-05-31T00:52:07;14.72;74.54
52656;SHT85;35474;51.032;6.998;2023-05-31T00:54:35;14.63;74.75
52656;SHT85;35474;51.032;6.998;2023-05-31T00:57:02;14.55;74.85
52656;SHT85;35474;51.032;6.998;2023-05-31T00:59:28;14.51;75.40
52656;SHT85;35474;51.032;6.998;2023-05-31T01:01:55;14.44;75.16
52656;SHT85;35474;51.032;6.998;2023-05-31T01:04:24;14.49;75.20
52656;SHT85;35474;51.032;6.998;2023-05-31T01:06:51;14.53;75.30
52656;SHT85;35474;51.032;6.998;2023-05-31T01:09:18;14.43;75.37
52656;SHT85;35474;51.032;6.998;2023-05-31T01:14:50;14.43;75.44
52656;SHT85;35474;51.032;6.998;2023-05-31T01:17:30;14.39;75.61
52656;SHT85;35474;51.032;6.998;2023-05-31T01:20:28;14.19;76.10
52656;SHT85;35474;51.032;6.998;2023-05-31T01:28:33;14.18;76.19
52656;SHT85;35474;51.032;6.998;2023-05-31T01:31:03;14.32;75.99
52656;SHT85;35474;51.032;6.998;2023-05-31T01:33:33;14.30;75.63
52656;SHT85;35474;51.032;6.998;2023-05-31T01:36:02;14.37;75.88
52656;SHT85;35474;51.032;6.998;2023-05-31T01:38:29;14.30;75.84
52656;SHT85;35474;51.032;6.998;2023-05-31T01:40:56;14.23;76.40
52656;SHT85;35474;51.032;6.998;2023-05-31T01:43:27;14.22;76.39
52656;SHT85;35474;51.032;6.998;2023-05-31T01:45:55;14.15;76.42
52656;SHT85;35474;51.032;6.998;2023-05-31T01:48:24;14.02;77.21
52656;SHT85;35474;51.032;6.998;2023-05-31T01:50:53;14.02;77.04
52656;SHT85;35474;51.032;6.998;2023-05-31T01:53:21;13.94;77.42
52656;SHT85;35474;51.032;6.998;2023-05-31T01:55:48;13.93;77.38
52656;SHT85;35474;51.032;6.998;2023-05-31T01:58:15;13.97;77.08
52656;SHT85;35474;51.032;6.998;2023-05-31T02:00:43;13.98;77.15
52656;SHT85;35474;51.032;6.998;2023-05-31T02:03:10;13.90;77.14
52656;SHT85;35474;51.032;6.998;2023-05-31T02:05:53;13.84;77.54
52656;SHT85;35474;51.032;6.998;2023-05-31T02:08:26;13.88;77.59
52656;SHT85;35474;51.032;6.998;2023-05-31T02:10:53;13.80;77.90
52656;SHT85;35474;51.032;6.998;2023-05-31T02:13:22;13.68;78.05
52656;SHT85;35474;51.032;6.998;2023-05-31T02:15:52;13.71;78.19
52656;SHT85;35474;51.032;6.998;2023-05-31T02:18:20;13.74;78.03
52656;SHT85;35474;51.032;6.998;2023-05-31T02:20:48;13.74;77.93
52656;SHT85;35474;51.032;6.998;2023-05-31T02:23:15;13.67;78.12
52656;SHT85;35474;51.032;6.998;2023-05-31T02:25:44;13.73;77.90
52656;SHT85;35474;51.032;6.998;2023-05-31T02:28:11;13.68;77.96
52656;SHT85;35474;51.032;6.998;2023-05-31T02:30:38;13.48;78.52
52656;SHT85;35474;51.032;6.998;2023-05-31T02:33:05;13.50;78.83
52656;SHT85;35474;51.032;6.998;2023-05-31T02:35:33;13.37;78.69
52656;SHT85;35474;51.032;6.998;2023-05-31T02:38:00;13.27;79.44
52656;SHT85;35474;51.032;6.998;2023-05-31T02:40:27;13.27;79.63
52656;SHT85;35474;51.032;6.998;2023-05-31T02:42:53;13.32;79.57
52656;SHT85;35474;51.032;6.998;2023-05-31T02:45:20;13.36;79.32
52656;SHT85;35474;51.032;6.998;2023-05-31T02:47:47;13.26;79.30
52656;SHT85;35474;51.032;6.998;2023-05-31T02:50:14;13.19;79.68
52656;SHT85;35474;51.032;6.998;2023-05-31T02:52:40;13.20;79.72
52656;SHT85;35474;51.032;6.998;2023-05-31T02:55:07;13.25;79.61
52656;SHT85;35474;51.032;6.998;2023-05-31T02:57:34;13.16;79.78
52656;SHT85;35474;51.032;6.998;2023-05-31T03:00:02;13.13;80.20
52656;SHT85;35474;51.032;6.998;2023-05-31T03:02:37;13.11;80.18
52656;SHT85;35474;51.032;6.998;2023-05-31T03:05:05;13.05;80.37
52656;SHT85;35474;51.032;6.998;2023-05-31T03:07:32;13.00;80.12
52656;SHT85;35474;51.032;6.998;2023-05-31T03:09:59;12.98;80.53
52656;SHT85;35474;51.032;6.998;2023-05-31T03:12:26;12.98;80.55
52656;SHT85;35474;51.032;6.998;2023-05-31T03:14:53;12.89;80.54
52656;SHT85;35474;51.032;6.998;2023-05-31T03:17:19;12.95;80.34
52656;SHT85;35474;51.032;6.998;2023-05-31T03:19:46;12.89;80.83
52656;SHT85;35474;51.032;6.998;2023-05-31T03:22:13;12.88;80.79
52656;SHT85;35474;51.032;6.998;2023-05-31T03:24:39;12.95;81.02
52656;SHT85;35474;51.032;6.998;2023-05-31T03:27:07;12.79;80.80
52656;SHT85;35474;51.032;6.998;2023-05-31T03:29:38;12.79;81.29
52656;SHT85;35474;51.032;6.998;2023-05-31T03:32:07;12.91;80.83
52656;SHT85;35474;51.032;6.998;2023-05-31T03:34:33;12.68;81.26
52656;SHT85;35474;51.032;6.998;2023-05-31T03:37:01;12.63;81.68
52656;SHT85;35474;51.032;6.998;2023-05-31T03:39:28;12.64;81.47
52656;SHT85;35474;51.032;6.998;2023-05-31T03:41:55;12.63;81.64
52656;SHT85;35474;51.032;6.998;2023-05-31T03:44:21;12.74;81.29
52656;SHT85;35474;51.032;6.998;2023-05-31T03:46:48;12.91;80.84
52656;SHT85;35474;51.032;6.998;2023-05-31T03:49:16;12.71;81.33
52656;SHT85;35474;51.032;6.998;2023-05-31T03:51:43;12.68;81.73
52656;SHT85;35474;51.032;6.998;2023-05-31T03:54:09;12.81;81.28
52656;SHT85;35474;51.032;6.998;2023-05-31T03:56:36;12.81;81.37
52656;SHT85;35474;51.032;6.998;2023-05-31T03:59:03;12.79;81.20
52656;SHT85;35474;51.032;6.998;2023-05-31T04:01:29;12.84;81.15
52656;SHT85;35474;51.032;6.998;2023-05-31T04:03:56;12.85;81.13
52656;SHT85;35474;51.032;6.998;2023-05-31T04:06:23;12.81;81.29
52656;SHT85;35474;51.032;6.998;2023-05-31T04:08:50;12.89;81.15
52656;SHT85;35474;51.032;6.998;2023-05-31T04:11:16;13.05;80.43
52656;SHT85;35474;51.032;6.998;2023-05-31T04:13:43;13.02;80.31
52656;SHT85;35474;51.032;6.998;2023-05-31T04:16:09;13.13;80.68
52656;SHT85;35474;51.032;6.998;2023-05-31T04:18:36;13.02;80.66
52656;SHT85;35474;51.032;6.998;2023-05-31T04:21:03;13.09;80.39
52656;SHT85;35474;51.032;6.998;2023-05-31T04:23:30;13.15;80.36
52656;SHT85;35474;51.032;6.998;2023-05-31T04:25:56;13.22;79.91
52656;SHT85;35474;51.032;6.998;2023-05-31T04:28:24;13.34;79.28
52656;SHT85;35474;51.032;6.998;2023-05-31T04:30:50;13.46;79.23
52656;SHT85;35474;51.032;6.998;2023-05-31T04:33:18;13.61;79.36
52656;SHT85;35474;51.032;6.998;2023-05-31T04:35:45;13.54;79.20
52656;SHT85;35474;51.032;6.998;2023-05-31T04:38:12;13.61;78.95
52656;SHT85;35474;51.032;6.998;2023-05-31T04:40:40;13.78;78.27
52656;SHT85;35474;51.032;6.998;2023-05-31T04:43:07;13.78;78.14
52656;SHT85;35474;51.032;6.998;2023-05-31T04:45:33;13.71;78.94
52656;SHT85;35474;51.032;6.998;2023-05-31T04:48:00;13.75;78.81
52656;SHT85;35474;51.032;6.998;2023-05-31T04:50:27;13.65;78.95
52656;SHT85;35474;51.032;6.998;2023-05-31T04:52:56;13.87;77.95
52656;SHT85;35474;51.032;6.998;2023-05-31T04:55:23;13.81;78.04
52656;SHT85;35474;51.032;6.998;2023-05-31T04:57:50;13.83;77.81
52656;SHT85;35474;51.032;6.998;2023-05-31T05:00:17;14.00;77.25
52656;SHT85;35474;51.032;6.998;2023-05-31T05:02:45;14.09;77.05
52656;SHT85;35474;51.032;6.998;2023-05-31T05:05:12;14.18;76.83
52656;SHT85;35474;51.032;6.998;2023-05-31T05:07:39;14.30;76.39
52656;SHT85;35474;51.032;6.998;2023-05-31T05:10:06;14.52;74.92
52656;SHT85;35474;51.032;6.998;2023-05-31T05:12:33;14.52;74.77
52656;SHT85;35474;51.032;6.998;2023-05-31T05:14:59;14.52;74.97
52656;SHT85;35474;51.032;6.998;2023-05-31T05:17:26;14.64;74.22
52656;SHT85;35474;51.032;6.998;2023-05-31T05:19:53;14.73;73.86
52656;SHT85;35474;51.032;6.998;2023-05-31T05:22:19;14.74;73.62
52656;SHT85;35474;51.032;6.998;2023-05-31T05:24:46;14.72;73.97
52656;SHT85;35474;51.032;6.998;2023-05-31T05:27:12;14.81;73.75
52656;SHT85;35474;51.032;6.998;2023-05-31T05:29:39;14.93;73.69
52656;SHT85;35474;51.032;6.998;2023-05-31T05:32:06;15.08;73.46
52656;SHT85;35474;51.032;6.998;2023-05-31T05:34:33;15.15;73.73
52656;SHT85;35474;51.032;6.998;2023-05-31T05:37:01;15.25;73.95
52656;SHT85;35474;51.032;6.998;2023-05-31T05:39:28;15.27;73.40
52656;SHT85;35474;51.032;6.998;2023-05-31T05:41:54;15.30;73.09
52656;SHT85;35474;51.032;6.998;2023-05-31T05:44:21;15.35;73.17
52656;SHT85;35474;51.032;6.998;2023-05-31T05:46:47;15.51;72.55
52656;SHT85;35474;51.032;6.998;2023-05-31T05:49:14;15.43;72.65
52656;SHT85;35474;51.032;6.998;2023-05-31T05:51:44;15.53;72.18
52656;SHT85;35474;51.032;6.998;2023-05-31T05:54:11;15.62;71.74
52656;SHT85;35474;51.032;6.998;2023-05-31T05:56:38;15.63;71.99
52656;SHT85;35474;51.032;6.998;2023-05-31T05:59:04;15.66;72.20
52656;SHT85;35474;51.032;6.998;2023-05-31T06:01:31;15.70;71.73
52656;SHT85;35474;51.032;6.998;2023-05-31T06:04:01;15.69;71.64
52656;SHT85;35474;51.032;6.998;2023-05-31T06:06:28;15.73;71.65
52656;SHT85;35474;51.032;6.998;2023-05-31T06:08:54;15.79;71.83
52656;SHT85;35474;51.032;6.998;2023-05-31T06:11:21;15.83;71.61
52656;SHT85;35474;51.032;6.998;2023-05-31T06:13:48;16.14;69.27
52656;SHT85;35474;51.032;6.998;2023-05-31T06:16:15;16.32;68.46
52656;SHT85;35474;51.032;6.998;2023-05-31T06:18:42;16.51;68.08
52656;SHT85;35474;51.032;6.998;2023-05-31T06:21:09;16.51;67.46
52656;SHT85;35474;51.032;6.998;2023-05-31T06:23:36;16.62;67.53
52656;SHT85;35474;51.032;6.998;2023-05-31T06:26:02;16.72;67.16
52656;SHT85;35474;51.032;6.998;2023-05-31T06:28:29;16.99;65.65
52656;SHT85;35474;51.032;6.998;2023-05-31T06:32:35;17.21;64.92
52656;SHT85;35474;51.032;6.998;2023-05-31T06:35:02;17.40;63.53
52656;SHT85;35474;51.032;6.998;2023-05-31T06:37:29;17.40;63.62
52656;SHT85;35474;51.032;6.998;2023-05-31T06:39:56;17.46;63.04
52656;SHT85;35474;51.032;6.998;2023-05-31T06:42:22;17.47;63.10
52656;SHT85;35474;51.032;6.998;2023-05-31T06:44:49;17.71;61.84
52656;SHT85;35474;51.032;6.998;2023-05-31T06:47:22;17.77;62.29
52656;SHT85;35474;51.032;6.998;2023-05-31T06:49:49;17.96;61.48
52656;SHT85;35474;51.032;6.998;2023-05-31T06:52:16;17.99;61.41
52656;SHT85;35474;51.032;6.998;2023-05-31T06:54:43;18.06;60.70
52656;SHT85;35474;51.032;6.998;2023-05-31T06:57:10;18.17;60.13
52656;SHT85;35474;51.032;6.998;2023-05-31T06:59:37;18.26;59.82
52656;SHT85;35474;51.032;6.998;2023-05-31T07:02:03;18.26;59.49
52656;SHT85;35474;51.032;6.998;2023-05-31T07:04:30;18.34;59.25
52656;SHT85;35474;51.032;6.998;2023-05-31T07:06:57;18.37;59.37
52656;SHT85;35474;51.032;6.998;2023-05-31T07:09:23;18.47;59.63
52656;SHT85;35474;51.032;6.998;2023-05-31T07:11:50;18.58;58.81
52656;SHT85;35474;51.032;6.998;2023-05-31T07:14:17;18.61;58.51
52656;SHT85;35474;51.032;6.998;2023-05-31T07:16:43;18.88;57.84
52656;SHT85;35474;51.032;6.998;2023-05-31T07:19:10;18.99;57.21
52656;SHT85;35474;51.032;6.998;2023-05-31T07:21:36;18.97;56.11
52656;SHT85;35474;51.032;6.998;2023-05-31T07:24:03;19.04;55.83
52656;SHT85;35474;51.032;6.998;2023-05-31T07:26:30;19.16;56.20
52656;SHT85;35474;51.032;6.998;2023-05-31T07:28:57;19.36;54.26
52656;SHT85;35474;51.032;6.998;2023-05-31T07:31:23;19.42;54.04
52656;SHT85;35474;51.032;6.998;2023-05-31T07:33:50;19.31;55.09
52656;SHT85;35474;51.032;6.998;2023-05-31T07:36:17;19.52;54.21
52656;SHT85;35474;51.032;6.998;2023-05-31T07:38:44;19.36;54.62
52656;SHT85;35474;51.032;6.998;2023-05-31T07:41:11;19.41;54.93
52656;SHT85;35474;51.032;6.998;2023-05-31T07:43:37;19.74;52.06
52656;SHT85;35474;51.032;6.998;2023-05-31T07:46:06;19.97;51.11
52656;SHT85;35474;51.032;6.998;2023-05-31T07:48:32;20.04;51.69
52656;SHT85;35474;51.032;6.998;2023-05-31T07:50:59;20.38;50.03
52656;SHT85;35474;51.032;6.998;2023-05-31T07:53:26;20.34;50.81
52656;SHT85;35474;51.032;6.998;2023-05-31T07:55:53;20.59;50.10
52656;SHT85;35474;51.032;6.998;2023-05-31T07:58:19;20.52;49.17
52656;SHT85;35474;51.032;6.998;2023-05-31T08:00:46;20.53;48.07
52656;SHT85;35474;51.032;6.998;2023-05-31T08:03:13;20.46;48.71
52656;SHT85;35474;51.032;6.998;2023-05-31T08:05:41;20.49;50.18
52656;SHT85;35474;51.032;6.998;2023-05-31T08:08:07;20.71;49.38
52656;SHT85;35474;51.032;6.998;2023-05-31T08:10:34;20.71;47.96
52656;SHT85;35474;51.032;6.998;2023-05-31T08:13:01;20.63;47.42
52656;SHT85;35474;51.032;6.998;2023-05-31T08:15:28;20.65;47.75
52656;SHT85;35474;51.032;6.998;2023-05-31T08:17:54;20.71;48.35
52656;SHT85;35474;51.032;6.998;2023-05-31T08:20:21;21.16;47.49
52656;SHT85;35474;51.032;6.998;2023-05-31T08:22:48;21.28;42.02
52656;SHT85;35474;51.032;6.998;2023-05-31T08:25:14;21.62;40.00
52656;SHT85;35474;51.032;6.998;2023-05-31T08:27:43;21.85;39.40
52656;SHT85;35474;51.032;6.998;2023-05-31T08:30:10;22.08;39.54
52656;SHT85;35474;51.032;6.998;2023-05-31T08:32:38;22.25;37.61
52656;SHT85;35474;51.032;6.998;2023-05-31T08:35:07;22.23;38.06
52656;SHT85;35474;51.032;6.998;2023-05-31T08:37:35;22.40;37.75
52656;SHT85;35474;51.032;6.998;2023-05-31T08:40:03;22.50;37.79
52656;SHT85;35474;51.032;6.998;2023-05-31T08:44:58;22.68;36.59
52656;SHT85;35474;51.032;6.998;2023-05-31T08:50:45;22.81;37.18
52656;SHT85;35474;51.032;6.998;2023-05-31T08:53:13;22.76;36.51
52656;SHT85;35474;51.032;6.998;2023-05-31T08:55:44;22.85;36.77
52656;SHT85;35474;51.032;6.998;2023-05-31T08:58:13;22.71;36.83
52656;SHT85;35474;51.032;6.998;2023-05-31T09:00:39;22.57;36.50
52656;SHT85;35474;51.032;6.998;2023-05-31T09:03:08;22.94;36.57
52656;SHT85;35474;51.032;6.998;2023-05-31T09:05:36;22.91;35.98
52656;SHT85;35474;51.032;6.998;2023-05-31T09:08:03;23.02;36.63
52656;SHT85;35474;51.032;6.998;2023-05-31T09:10:30;23.19;36.06
52656;SHT85;35474;51.032;6.998;2023-05-31T09:12:57;23.08;35.60
52656;SHT85;35474;51.032;6.998;2023-05-31T09:15:24;23.31;35.83
52656;SHT85;35474;51.032;6.998;2023-05-31T09:17:51;23.28;35.74
52656;SHT85;35474;51.032;6.998;2023-05-31T09:20:19;23.31;36.09
52656;SHT85;35474;51.032;6.998;2023-05-31T09:22:48;23.26;36.00
52656;SHT85;35474;51.032;6.998;2023-05-31T09:25:15;23.58;36.07
52656;SHT85;35474;51.032;6.998;2023-05-31T09:27:42;23.73;36.25
52656;SHT85;35474;51.032;6.998;2023-05-31T09:30:09;23.80;36.27
52656;SHT85;35474;51.032;6.998;2023-05-31T09:32:38;23.82;36.08
52656;SHT85;35474;51.032;6.998;2023-05-31T09:35:09;23.62;35.48
52656;SHT85;35474;51.032;6.998;2023-05-31T09:37:42;23.35;36.46
52656;SHT85;35474;51.032;6.998;2023-05-31T09:40:13;23.67;35.57
52656;SHT85;35474;51.032;6.998;2023-05-31T09:42:50;23.98;35.35
52656;SHT85;35474;51.032;6.998;2023-05-31T09:45:18;24.16;34.53
52656;SHT85;35474;51.032;6.998;2023-05-31T09:47:46;24.16;34.98
52656;SHT85;35474;51.032;6.998;2023-05-31T09:50:17;24.53;34.08
52656;SHT85;35474;51.032;6.998;2023-05-31T09:52:47;24.78;33.30
52656;SHT85;35474;51.032;6.998;2023-05-31T09:55:16;24.85;33.24
52656;SHT85;35474;51.032;6.998;2023-05-31T09:57:43;25.44;31.69
52656;SHT85;35474;51.032;6.998;2023-05-31T10:02:46;26.43;30.51
52656;SHT85;35474;51.032;6.998;2023-05-31T10:05:14;26.62;30.53
52656;SHT85;35474;51.032;6.998;2023-05-31T10:07:43;27.21;29.01
52656;SHT85;35474;51.032;6.998;2023-05-31T10:10:12;27.31;29.32
52656;SHT85;35474;51.032;6.998;2023-05-31T10:12:57;26.86;30.14
52656;SHT85;35474;51.032;6.998;2023-05-31T10:15:28;28.06;28.29
52656;SHT85;35474;51.032;6.998;2023-05-31T10:23:05;28.85;27.79
52656;SHT85;35474;51.032;6.998;2023-05-31T10:25:38;28.63;28.19
52656;SHT85;35474;51.032;6.998;2023-05-31T10:28:10;28.61;28.12
52656;SHT85;35474;51.032;6.998;2023-05-31T10:30:40;28.43;26.99
52656;SHT85;35474;51.032;6.998;2023-05-31T10:33:08;29.05;26.67
52656;SHT85;35474;51.032;6.998;2023-05-31T10:35:38;28.88;27.72
52656;SHT85;35474;51.032;6.998;2023-05-31T10:38:05;29.35;26.94
52656;SHT85;35474;51.032;6.998;2023-05-31T10:40:35;29.33;26.89
52656;SHT85;35474;51.032;6.998;2023-05-31T10:45:55;29.54;26.98
52656;SHT85;35474;51.032;6.998;2023-05-31T10:51:39;29.83;26.83
52656;SHT85;35474;51.032;6.998;2023-05-31T10:54:21;29.65;26.01
52656;SHT85;35474;51.032;6.998;2023-05-31T10:56:54;28.91;27.47
52656;SHT85;35474;51.032;6.998;2023-05-31T10:59:22;29.53;27.17
52656;SHT85;35474;51.032;6.998;2023-05-31T11:01:50;28.51;28.08
52656;SHT85;35474;51.032;6.998;2023-05-31T11:04:25;28.43;28.65
52656;SHT85;35474;51.032;6.998;2023-05-31T11:07:09;28.65;28.12
52656;SHT85;35474;51.032;6.998;2023-05-31T11:09:56;29.19;27.34
52656;SHT85;35474;51.032;6.998;2023-05-31T11:12:32;30.59;25.75
52656;SHT85;35474;51.032;6.998;2023-05-31T11:15:00;29.67;27.21
52656;SHT85;35474;51.032;6.998;2023-05-31T11:17:31;29.53;27.40
52656;SHT85;35474;51.032;6.998;2023-05-31T11:20:06;30.94;26.30
52656;SHT85;35474;51.032;6.998;2023-05-31T11:22:33;29.78;27.14
52656;SHT85;35474;51.032;6.998;2023-05-31T11:25:00;29.40;27.00
52656;SHT85;35474;51.032;6.998;2023-05-31T11:27:34;30.42;26.65
52656;SHT85;35474;51.032;6.998;2023-05-31T11:30:02;30.44;26.16
52656;SHT85;35474;51.032;6.998;2023-05-31T11:35:03;30.49;26.38
52656;SHT85;35474;51.032;6.998;2023-05-31T11:37:35;29.60;27.29
52656;SHT85;35474;51.032;6.998;2023-05-31T11:40:04;30.82;26.53
52656;SHT85;35474;51.032;6.998;2023-05-31T11:42:34;32.08;25.44
52656;SHT85;35474;51.032;6.998;2023-05-31T11:45:05;32.40;25.84
52656;SHT85;35474;51.032;6.998;2023-05-31T11:50:34;30.87;26.78
52656;SHT85;35474;51.032;6.998;2023-05-31T11:53:04;30.59;27.81
52656;SHT85;35474;51.032;6.998;2023-05-31T11:55:33;30.20;29.07
52656;SHT85;35474;51.032;6.998;2023-05-31T11:58:03;30.93;28.19
52656;SHT85;35474;51.032;6.998;2023-05-31T12:00:31;31.14;28.84
52656;SHT85;35474;51.032;6.998;2023-05-31T12:02:58;30.46;29.66
52656;SHT85;35474;51.032;6.998;2023-05-31T12:05:32;31.29;28.45
52656;SHT85;35474;51.032;6.998;2023-05-31T12:07:59;31.41;29.10
52656;SHT85;35474;51.032;6.998;2023-05-31T12:10:26;30.93;28.95
52656;SHT85;35474;51.032;6.998;2023-05-31T12:12:54;30.71;29.54
52656;SHT85;35474;51.032;6.998;2023-05-31T12:15:24;31.57;29.02
52656;SHT85;35474;51.032;6.998;2023-05-31T12:17:52;30.89;29.55
52656;SHT85;35474;51.032;6.998;2023-05-31T12:20:19;30.61;29.66
52656;SHT85;35474;51.032;6.998;2023-05-31T12:22:45;30.93;29.52
52656;SHT85;35474;51.032;6.998;2023-05-31T12:25:12;31.99;28.45
52656;SHT85;35474;51.032;6.998;2023-05-31T12:27:39;31.91;28.29
52656;SHT85;35474;51.032;6.998;2023-05-31T12:30:17;30.69;30.32
52656;SHT85;35474;51.032;6.998;2023-05-31T12:32:44;30.69;30.53
52656;SHT85;35474;51.032;6.998;2023-05-31T12:35:12;30.80;29.85
52656;SHT85;35474;51.032;6.998;2023-05-31T12:37:40;31.54;29.07
52656;SHT85;35474;51.032;6.998;2023-05-31T12:40:11;31.57;29.53
52656;SHT85;35474;51.032;6.998;2023-05-31T12:42:39;32.49;28.27
52656;SHT85;35474;51.032;6.998;2023-05-31T12:45:06;33.13;27.81
52656;SHT85;35474;51.032;6.998;2023-05-31T12:47:34;32.16;29.26
52656;SHT85;35474;51.032;6.998;2023-05-31T12:50:03;32.91;28.44
52656;SHT85;35474;51.032;6.998;2023-05-31T12:52:32;32.04;29.38
52656;SHT85;35474;51.032;6.998;2023-05-31T12:55:05;31.45;30.21
52656;SHT85;35474;51.032;6.998;2023-05-31T12:57:33;31.61;30.37
52656;SHT85;35474;51.032;6.998;2023-05-31T13:00:09;32.67;29.39
52656;SHT85;35474;51.032;6.998;2023-05-31T13:02:39;33.06;28.51
52656;SHT85;35474;51.032;6.998;2023-05-31T13:05:07;31.70;29.44
52656;SHT85;35474;51.032;6.998;2023-05-31T13:07:34;31.47;30.24
52656;SHT85;35474;51.032;6.998;2023-05-31T13:10:02;32.49;28.62
52656;SHT85;35474;51.032;6.998;2023-05-31T13:12:35;32.63;28.55
52656;SHT85;35474;51.032;6.998;2023-05-31T13:15:02;32.26;28.76
52656;SHT85;35474;51.032;6.998;2023-05-31T13:17:29;31.99;28.81
52656;SHT85;35474;51.032;6.998;2023-05-31T13:19:56;32.01;29.12
52656;SHT85;35474;51.032;6.998;2023-05-31T13:22:37;32.01;29.35
52656;SHT85;35474;51.032;6.998;2023-05-31T13:25:04;30.87;30.37
52656;SHT85;35474;51.032;6.998;2023-05-31T13:27:32;31.64;29.73
52656;SHT85;35474;51.032;6.998;2023-05-31T13:29:59;31.89;29.16
52656;SHT85;35474;51.032;6.998;2023-05-31T13:32:25;32.76;27.63
52656;SHT85;35474;51.032;6.998;2023-05-31T13:34:52;32.91;27.94
52656;SHT85;35474;51.032;6.998;2023-05-31T13:37:23;32.55;28.04
52656;SHT85;35474;51.032;6.998;2023-05-31T13:39:50;32.33;28.65
52656;SHT85;35474;51.032;6.998;2023-05-31T13:42:18;32.25;28.33
52656;SHT85;35474;51.032;6.998;2023-05-31T13:44:44;31.12;29.29
52656;SHT85;35474;51.032;6.998;2023-05-31T13:47:11;31.40;29.27
52656;SHT85;35474;51.032;6.998;2023-05-31T13:49:37;31.78;28.60
52656;SHT85;35474;51.032;6.998;2023-05-31T13:52:04;32.49;28.42
52656;SHT85;35474;51.032;6.998;2023-05-31T13:54:32;32.12;28.51
52656;SHT85;35474;51.032;6.998;2023-05-31T13:56:59;32.65;27.76
52656;SHT85;35474;51.032;6.998;2023-05-31T13:59:27;31.35;30.00
52656;SHT85;35474;51.032;6.998;2023-05-31T14:01:54;32.12;28.83
52656;SHT85;35474;51.032;6.998;2023-05-31T14:04:21;31.64;29.55
52656;SHT85;35474;51.032;6.998;2023-05-31T14:06:49;31.74;28.68
52656;SHT85;35474;51.032;6.998;2023-05-31T14:09:16;31.23;28.88
52656;SHT85;35474;51.032;6.998;2023-05-31T14:11:44;30.86;29.17
52656;SHT85;35474;51.032;6.998;2023-05-31T14:14:12;30.75;29.82
52656;SHT85;35474;51.032;6.998;2023-05-31T14:16:39;31.06;29.53
52656;SHT85;35474;51.032;6.998;2023-05-31T14:19:07;32.05;28.50
52656;SHT85;35474;51.032;6.998;2023-05-31T14:21:33;31.78;28.54
52656;SHT85;35474;51.032;6.998;2023-05-31T14:24:08;32.15;28.19
52656;SHT85;35474;51.032;6.998;2023-05-31T14:26:34;32.19;28.25
52656;SHT85;35474;51.032;6.998;2023-05-31T14:29:01;32.01;28.51
52656;SHT85;35474;51.032;6.998;2023-05-31T14:31:27;31.19;29.09
52656;SHT85;35474;51.032;6.998;2023-05-31T14:33:54;31.27;29.76
52656;SHT85;35474;51.032;6.998;2023-05-31T14:36:21;32.12;28.65
52656;SHT85;35474;51.032;6.998;2023-05-31T14:38:48;31.87;28.94
52656;SHT85;35474;51.032;6.998;2023-05-31T14:41:15;31.35;29.31
52656;SHT85;35474;51.032;6.998;2023-05-31T14:43:41;30.96;29.66
52656;SHT85;35474;51.032;6.998;2023-05-31T14:46:08;31.27;29.55
52656;SHT85;35474;51.032;6.998;2023-05-31T14:48:35;32.02;28.84
52656;SHT85;35474;51.032;6.998;2023-05-31T14:51:02;32.57;28.36
52656;SHT85;35474;51.032;6.998;2023-05-31T14:53:29;32.77;27.91
52656;SHT85;35474;51.032;6.998;2023-05-31T14:55:56;32.52;28.14
52656;SHT85;35474;51.032;6.998;2023-05-31T14:58:42;31.77;29.00
52656;SHT85;35474;51.032;6.998;2023-05-31T15:01:12;31.94;28.80
52656;SHT85;35474;51.032;6.998;2023-05-31T15:03:39;31.50;29.37
52656;SHT85;35474;51.032;6.998;2023-05-31T15:06:06;30.99;29.81
52656;SHT85;35474;51.032;6.998;2023-05-31T15:08:32;30.72;29.95
52656;SHT85;35474;51.032;6.998;2023-05-31T15:11:01;30.01;30.69
52656;SHT85;35474;51.032;6.998;2023-05-31T15:13:28;29.46;31.82
52656;SHT85;35474;51.032;6.998;2023-05-31T15:15:54;30.34;30.81
52656;SHT85;35474;51.032;6.998;2023-05-31T15:18:21;29.35;32.04
52656;SHT85;35474;51.032;6.998;2023-05-31T15:20:48;29.25;32.13
52656;SHT85;35474;51.032;6.998;2023-05-31T15:23:15;30.11;31.04
52656;SHT85;35474;51.032;6.998;2023-05-31T15:25:42;30.49;30.54
52656;SHT85;35474;51.032;6.998;2023-05-31T15:28:09;30.35;30.62
52656;SHT85;35474;51.032;6.998;2023-05-31T15:30:35;30.35;30.62
52656;SHT85;35474;51.032;6.998;2023-05-31T15:33:02;30.44;30.15
52656;SHT85;35474;51.032;6.998;2023-05-31T15:35:29;30.41;30.59
52656;SHT85;35474;51.032;6.998;2023-05-31T15:38:00;30.69;30.08
52656;SHT85;35474;51.032;6.998;2023-05-31T15:40:27;29.97;31.05
52656;SHT85;35474;51.032;6.998;2023-05-31T15:42:53;30.86;30.08
52656;SHT85;35474;51.032;6.998;2023-05-31T15:45:20;30.75;30.33
52656;SHT85;35474;51.032;6.998;2023-05-31T15:47:47;30.66;30.24
52656;SHT85;35474;51.032;6.998;2023-05-31T15:50:14;30.63;30.41
52656;SHT85;35474;51.032;6.998;2023-05-31T15:52:40;30.32;30.53
52656;SHT85;35474;51.032;6.998;2023-05-31T15:55:07;30.62;30.12
52656;SHT85;35474;51.032;6.998;2023-05-31T15:57:34;30.68;30.11
52656;SHT85;35474;51.032;6.998;2023-05-31T16:00:01;29.88;31.17
52656;SHT85;35474;51.032;6.998;2023-05-31T16:02:28;29.46;31.64
52656;SHT85;35474;51.032;6.998;2023-05-31T16:04:54;29.43;31.93
52656;SHT85;35474;51.032;6.998;2023-05-31T16:07:21;29.46;32.10
52656;SHT85;35474;51.032;6.998;2023-05-31T16:09:48;29.25;32.41